Metar Aviation Weather Data        EGKK Shoreham Airport
Temperature
9°C Temperature
7°C Dewpoint
87% Humidity



Wind
7 KM/H
5 MPH
2 M/S
4 KTS



290°
WNW
Current Conditions

Mostly Clear Mostly Clear
Pressure 1023 (hPa) - 30.21 (inHg)
Visibility 6 (mile) - 10 (km)
Airport
Airport-code EGKK

Location: Shoreham Airport
Distance: 9 (km)

Metar:
METAR EGKK 140220Z 29004KT CAVOK 09/07 Q1023

Time: 14-04-2024 03:20 BST